Terminal Aerodrome Forecast
Issued by NWS

Home | Current Version | Previous Version | Graphics & Text | Print | Product List | Glossary On
Versions: 1 2 3 4 5 6 7 8 9 10 11 12 13 14 15 16 17 18 19 20 21 22 23
955
FTUS43 KABR 112146 AAB
TAFMBG
TAF AMD
KMBG 112146Z 1122/1218 05004KT 2SM -SN OVC008
     FM120400 03008KT 6SM BR OVC011
     FM121600 02011KT 6SM BR SCT011 OVC050=

USA.gov is the U.S. government's official web portal to all federal, state and local government web resources and services.